Time;durP1;ratioP1;P1;durP2;ratioP2;P2;SDS_P1;SDS_P2;PMS_P1;PMS_P2;Temp;Humidity;BMP_temperature;BMP_pressure;BME280_temperature;BME280_humidity;BME280_pressure;Samples;Min_cycle;Max_cycle;Signal;HPM_P1;HPM_P2
2021/09/19 00:01:20;;;;;;;14.48;12.55;;;20.00;99.90;;;;;;4974556;28;20031;-59
2021/09/19 00:03:46;;;;;;;15.85;11.90;;;20.00;99.90;;;;;;4974808;28;20039;-59
2021/09/19 00:06:12;;;;;;;13.07;11.55;;;19.90;99.90;;;;;;4956224;28;20031;-59
2021/09/19 00:08:38;;;;;;;13.07;11.77;;;19.90;99.90;;;;;;4981816;28;20029;-59
2021/09/19 00:11:04;;;;;;;14.65;11.68;;;19.90;99.90;;;;;;4982615;28;20039;-59
2021/09/19 00:13:30;;;;;;;14.02;12.63;;;19.90;99.90;;;;;;4976987;28;20065;-60
2021/09/19 00:15:56;;;;;;;18.13;13.38;;;20.00;99.90;;;;;;4973299;28;20070;-59
2021/09/19 00:18:21;;;;;;;14.63;12.18;;;19.90;99.90;;;;;;4983730;28;20051;-59
2021/09/19 00:20:48;;;;;;;14.30;12.60;;;19.90;99.90;;;;;;4990181;28;20503;-59
2021/09/19 00:23:14;;;;;;;13.77;12.00;;;19.90;99.90;;;;;;4970397;28;20085;-59
2021/09/19 00:25:40;;;;;;;14.68;12.75;;;20.00;99.90;;;;;;4976836;28;20114;-59
2021/09/19 00:28:06;;;;;;;18.48;13.95;;;19.90;99.90;;;;;;4971926;28;20027;-60
2021/09/19 00:30:33;;;;;;;14.25;12.75;;;20.00;99.90;;;;;;4972366;28;20440;-59
2021/09/19 00:32:59;;;;;;;15.48;13.23;;;20.00;99.90;;;;;;4989590;28;20026;-59
2021/09/19 00:35:26;;;;;;;21.58;14.43;;;20.00;99.90;;;;;;4982424;28;20030;-59
2021/09/19 00:37:52;;;;;;;18.75;14.18;;;20.10;99.90;;;;;;4987659;28;20039;-59
2021/09/19 00:40:18;;;;;;;16.75;14.35;;;20.20;99.90;;;;;;4980296;28;20031;-59
2021/09/19 00:42:44;;;;;;;14.55;12.82;;;20.20;99.90;;;;;;4992530;28;20027;-60
2021/09/19 00:45:21;;;;;;;16.75;15.00;;;20.30;99.90;;;;;;4980214;28;20030;-59
2021/09/19 00:47:47;;;;;;;16.90;15.30;;;20.30;99.90;;;;;;4976581;28;20050;-59
2021/09/19 00:50:15;;;;;;;18.00;16.13;;;20.30;99.90;;;;;;4976657;28;20380;-59
2021/09/19 00:52:43;;;;;;;18.10;15.38;;;20.30;99.90;;;;;;4980539;28;20035;-59
2021/09/19 00:55:09;;;;;;;22.67;19.13;;;20.30;99.90;;;;;;4981920;28;20455;-60
2021/09/19 00:57:44;;;;;;;27.08;20.02;;;20.30;99.90;;;;;;4978279;28;20411;-60
2021/09/19 01:00:12;;;;;;;25.70;21.40;;;20.40;99.90;;;;;;4959511;28;20507;-60
2021/09/19 01:02:37;;;;;;;28.60;23.63;;;20.40;99.90;;;;;;4980179;28;20075;-60
2021/09/19 01:05:04;;;;;;;30.15;23.45;;;20.40;99.90;;;;;;4983313;28;20069;-60
2021/09/19 01:07:30;;;;;;;27.13;24.20;;;20.50;99.90;;;;;;4993137;28;20034;-59
2021/09/19 01:09:56;;;;;;;29.15;25.08;;;20.50;99.90;;;;;;4988365;28;20124;-60
2021/09/19 01:12:25;;;;;;;30.30;24.73;;;20.40;99.90;;;;;;4985037;28;20057;-60
2021/09/19 01:14:51;;;;;;;27.95;24.85;;;20.50;99.90;;;;;;4980372;28;20031;-60
2021/09/19 01:17:21;;;;;;;32.00;25.00;;;20.40;99.90;;;;;;4979025;28;20030;-60
2021/09/19 01:19:47;;;;;;;29.10;25.08;;;20.40;99.90;;;;;;4978238;28;20035;-60
2021/09/19 01:22:14;;;;;;;28.35;25.05;;;20.50;99.90;;;;;;4984449;28;20089;-59
2021/09/19 01:24:40;;;;;;;33.75;25.27;;;20.50;99.90;;;;;;4986465;28;20061;-60
2021/09/19 01:27:06;;;;;;;28.25;24.90;;;20.50;99.90;;;;;;4995435;28;20034;-60
2021/09/19 01:29:33;;;;;;;26.90;24.05;;;20.50;99.90;;;;;;4978012;28;20038;-59
2021/09/19 01:31:59;;;;;;;27.10;24.10;;;20.50;99.90;;;;;;4976724;28;20081;-59
2021/09/19 01:34:26;;;;;;;30.63;25.80;;;20.60;99.90;;;;;;4973639;28;20106;-59
2021/09/19 01:36:52;;;;;;;28.13;25.15;;;20.50;99.90;;;;;;4991118;28;20452;-59
2021/09/19 01:39:18;;;;;;;32.30;25.17;;;20.50;99.90;;;;;;4981978;28;20103;-59
2021/09/19 01:41:43;;;;;;;28.75;24.67;;;20.50;99.90;;;;;;4975751;28;20053;-60
2021/09/19 01:44:10;;;;;;;27.08;24.30;;;20.60;99.90;;;;;;4974587;28;20038;-60
2021/09/19 01:46:36;;;;;;;27.25;24.48;;;20.50;99.90;;;;;;4989803;28;20030;-59
2021/09/19 01:49:05;;;;;;;27.77;24.80;;;20.50;99.90;;;;;;4965762;28;20531;-59
2021/09/19 01:51:30;;;;;;;27.48;24.40;;;20.50;99.90;;;;;;4965466;28;20484;-59
2021/09/19 01:53:56;;;;;;;27.85;24.00;;;20.50;99.90;;;;;;4973837;28;20033;-59
2021/09/19 01:56:22;;;;;;;29.38;26.15;;;20.50;99.90;;;;;;4984098;28;20039;-60
2021/09/19 01:58:54;;;;;;;31.00;25.80;;;20.60;99.90;;;;;;4977009;28;20028;-60
2021/09/19 02:01:23;;;;;;;28.75;24.95;;;20.60;99.90;;;;;;4985730;28;20041;-60
2021/09/19 02:03:51;;;;;;;31.50;25.83;;;20.70;99.90;;;;;;4973335;28;20133;-60
2021/09/19 02:06:17;;;;;;;29.85;25.30;;;20.70;99.90;;;;;;4963329;28;20117;-59
2021/09/19 02:08:43;;;;;;;27.98;25.08;;;20.70;99.90;;;;;;4972806;28;20038;-60
2021/09/19 02:11:11;;;;;;;29.67;24.42;;;20.80;99.90;;;;;;4977105;28;20042;-60
2021/09/19 02:13:38;;;;;;;29.15;24.48;;;20.80;99.90;;;;;;4976573;28;20400;-60
2021/09/19 02:16:06;;;;;;;30.98;25.42;;;20.80;99.90;;;;;;4984205;28;20101;-60
2021/09/19 02:18:32;;;;;;;29.65;25.00;;;20.70;99.90;;;;;;4985846;28;20070;-60
2021/09/19 02:20:59;;;;;;;28.10;25.17;;;20.70;99.90;;;;;;4977587;28;20134;-58
2021/09/19 02:23:24;;;;;;;26.35;23.48;;;20.70;99.90;;;;;;4982712;28;20043;-59
2021/09/19 02:25:50;;;;;;;30.08;25.00;;;20.80;99.90;;;;;;4975320;28;20029;-59
2021/09/19 02:28:17;;;;;;;27.48;24.60;;;20.70;99.90;;;;;;4956016;28;20369;-59
2021/09/19 02:30:42;;;;;;;29.20;25.65;;;20.70;99.90;;;;;;4984905;28;20038;-58
2021/09/19 02:33:08;;;;;;;28.48;25.27;;;20.80;99.90;;;;;;4962214;28;20031;-59
2021/09/19 02:35:34;;;;;;;29.08;24.55;;;20.80;99.90;;;;;;4984881;28;20033;-58
2021/09/19 02:37:59;;;;;;;26.85;24.02;;;20.80;99.90;;;;;;4982058;28;20027;-58
2021/09/19 02:40:26;;;;;;;29.17;26.00;;;20.90;99.90;;;;;;4971909;28;20476;-59
2021/09/19 02:42:53;;;;;;;27.33;24.45;;;20.90;99.90;;;;;;4985372;28;20130;-59
2021/09/19 02:45:19;;;;;;;28.52;25.65;;;20.80;99.90;;;;;;4978099;28;20090;-59
2021/09/19 02:47:45;;;;;;;29.33;24.85;;;20.90;99.90;;;;;;4992284;28;20030;-59
2021/09/19 02:50:16;;;;;;;29.33;25.42;;;20.80;99.90;;;;;;4957653;28;20546;-59
2021/09/19 02:52:42;;;;;;;28.88;24.10;;;20.80;99.90;;;;;;4982251;28;20146;-58
2021/09/19 02:55:10;;;;;;;28.25;25.35;;;20.80;99.90;;;;;;4975419;28;20110;-59
2021/09/19 02:57:37;;;;;;;29.35;25.58;;;20.80;99.90;;;;;;4972840;28;20608;-59
2021/09/19 03:00:05;;;;;;;25.92;22.45;;;20.90;99.90;;;;;;4972902;28;20034;-59
2021/09/19 03:02:30;;;;;;;28.25;25.38;;;20.90;99.90;;;;;;4983147;28;20038;-58
2021/09/19 03:04:56;;;;;;;27.17;24.15;;;20.90;99.90;;;;;;4961634;28;20027;-59
2021/09/19 03:07:22;;;;;;;26.38;23.58;;;20.90;99.90;;;;;;4982836;28;20093;-59
2021/09/19 03:09:47;;;;;;;28.50;22.60;;;20.90;99.90;;;;;;4984291;28;20037;-60
2021/09/19 03:12:13;;;;;;;27.35;24.50;;;20.90;99.90;;;;;;4989643;28;20476;-59
2021/09/19 03:14:38;;;;;;;29.63;23.65;;;20.90;99.90;;;;;;4973021;28;20035;-59
2021/09/19 03:17:04;;;;;;;24.70;22.15;;;20.90;99.90;;;;;;4983604;28;20038;-58
2021/09/19 03:19:29;;;;;;;28.15;22.33;;;20.90;99.90;;;;;;4973331;28;20034;-59
2021/09/19 03:21:55;;;;;;;23.38;20.85;;;21.00;99.90;;;;;;4974161;28;20030;-60
2021/09/19 03:24:21;;;;;;;25.02;22.33;;;20.90;99.90;;;;;;4980714;28;20097;-60
2021/09/19 03:26:46;;;;;;;22.25;19.90;;;21.00;99.90;;;;;;4958135;28;20069;-59
2021/09/19 03:29:12;;;;;;;23.63;20.67;;;21.00;99.90;;;;;;4972543;28;20030;-59
2021/09/19 03:31:37;;;;;;;23.50;21.10;;;21.00;99.90;;;;;;4982629;28;20039;-60
2021/09/19 03:34:03;;;;;;;22.70;20.38;;;21.00;99.90;;;;;;4971026;28;20496;-60
2021/09/19 03:36:28;;;;;;;25.80;20.05;;;20.90;99.90;;;;;;4989869;28;20035;-60
2021/09/19 03:38:54;;;;;;;23.52;19.58;;;20.90;99.90;;;;;;4966455;28;20027;-60
2021/09/19 03:41:20;;;;;;;21.67;19.40;;;20.90;99.90;;;;;;4976105;28;20344;-59
2021/09/19 03:43:46;;;;;;;21.35;19.10;;;20.90;99.90;;;;;;4966626;28;20031;-60
2021/09/19 03:46:12;;;;;;;24.17;20.77;;;20.90;99.90;;;;;;4973062;28;20524;-60
2021/09/19 03:48:37;;;;;;;21.73;18.58;;;20.80;99.90;;;;;;4969969;28;20101;-59
2021/09/19 03:51:03;;;;;;;21.33;19.15;;;20.80;99.90;;;;;;4973975;28;20035;-60
2021/09/19 03:53:28;;;;;;;21.73;18.75;;;20.90;99.90;;;;;;4976799;28;20048;-60
2021/09/19 03:55:54;;;;;;;23.38;18.48;;;20.90;99.90;;;;;;4973521;28;20444;-60
2021/09/19 03:58:20;;;;;;;20.27;18.38;;;20.90;99.90;;;;;;4978362;28;20029;-60
2021/09/19 04:00:45;;;;;;;20.63;18.13;;;20.90;99.90;;;;;;4971703;28;20031;-60
2021/09/19 04:03:11;;;;;;;20.98;18.75;;;20.80;99.90;;;;;;4974604;28;20030;-60
2021/09/19 04:05:37;;;;;;;21.35;18.52;;;20.90;99.90;;;;;;4972380;28;20039;-60
2021/09/19 04:08:04;;;;;;;20.45;18.13;;;20.90;99.90;;;;;;4976720;28;20023;-60
2021/09/19 04:10:30;;;;;;;21.58;19.17;;;20.90;99.90;;;;;;4978934;28;20038;-60
2021/09/19 04:12:55;;;;;;;21.33;18.40;;;20.90;99.90;;;;;;4988986;28;20039;-60
2021/09/19 04:15:21;;;;;;;19.35;17.38;;;20.90;99.90;;;;;;4958745;28;20048;-60
2021/09/19 04:17:47;;;;;;;19.88;17.92;;;20.90;99.90;;;;;;4975945;28;20047;-60
2021/09/19 04:20:13;;;;;;;19.95;17.90;;;20.90;99.90;;;;;;4975985;28;20038;-60
2021/09/19 04:22:40;;;;;;;20.58;18.02;;;20.90;99.90;;;;;;4961107;28;20045;-60
2021/09/19 04:25:08;;;;;;;18.70;16.83;;;20.80;99.90;;;;;;4985331;28;20535;-60
2021/09/19 04:27:34;;;;;;;19.88;17.80;;;20.70;99.90;;;;;;4996686;28;20040;-60
2021/09/19 04:29:59;;;;;;;19.20;17.30;;;20.70;99.90;;;;;;4983958;28;20035;-60
2021/09/19 04:32:25;;;;;;;20.20;17.85;;;20.70;99.90;;;;;;4977132;28;20133;-60
2021/09/19 04:34:51;;;;;;;21.17;18.95;;;20.70;99.90;;;;;;4980140;28;20031;-60
2021/09/19 04:37:17;;;;;;;21.75;18.33;;;20.50;99.90;;;;;;4965742;28;20036;-60
2021/09/19 04:39:44;;;;;;;19.30;17.40;;;20.60;99.90;;;;;;4986177;28;20027;-59
2021/09/19 04:42:10;;;;;;;19.00;16.40;;;20.60;99.90;;;;;;4974932;28;20041;-60
2021/09/19 04:44:36;;;;;;;20.10;18.02;;;20.70;99.90;;;;;;4975542;28;20023;-60
2021/09/19 04:47:02;;;;;;;20.25;18.25;;;20.70;99.90;;;;;;4982527;28;20046;-60
2021/09/19 04:49:27;;;;;;;19.48;17.48;;;20.60;99.90;;;;;;4980342;28;20057;-60
2021/09/19 04:51:53;;;;;;;18.58;16.70;;;20.60;99.90;;;;;;4986664;28;20074;-60
2021/09/19 04:54:19;;;;;;;18.92;17.05;;;20.70;99.90;;;;;;4980699;28;20031;-60
2021/09/19 04:56:44;;;;;;;19.00;16.92;;;20.60;99.90;;;;;;4986072;28;20034;-60
2021/09/19 04:59:10;;;;;;;18.02;16.17;;;20.80;99.90;;;;;;4982415;28;20027;-60
2021/09/19 05:01:36;;;;;;;19.15;17.17;;;20.70;99.90;;;;;;4978840;28;20027;-60
2021/09/19 05:04:02;;;;;;;19.55;17.65;;;20.70;99.90;;;;;;4987953;28;20105;-60
2021/09/19 05:06:27;;;;;;;18.60;16.83;;;20.60;99.90;;;;;;4994956;28;20478;-60
2021/09/19 05:08:53;;;;;;;18.95;16.95;;;20.60;99.90;;;;;;4992740;28;20026;-60
2021/09/19 05:11:18;;;;;;;18.75;16.88;;;20.60;99.90;;;;;;4974497;28;20046;-60
2021/09/19 05:13:44;;;;;;;19.30;17.40;;;20.50;99.90;;;;;;4974614;28;20093;-60
2021/09/19 05:16:09;;;;;;;20.52;18.25;;;20.60;99.90;;;;;;4974232;28;20045;-59
2021/09/19 05:18:35;;;;;;;19.58;17.48;;;20.60;99.90;;;;;;4983565;28;22240;-59
2021/09/19 05:21:02;;;;;;;20.08;17.90;;;20.60;99.90;;;;;;4976698;28;20449;-59
2021/09/19 05:23:28;;;;;;;19.77;17.92;;;20.70;99.90;;;;;;4974686;28;20023;-60
2021/09/19 05:25:54;;;;;;;19.35;17.55;;;20.70;99.90;;;;;;4974557;28;20115;-60
2021/09/19 05:28:20;;;;;;;19.75;17.65;;;20.60;99.90;;;;;;4958549;28;20121;-59
2021/09/19 05:30:45;;;;;;;19.10;17.10;;;20.60;99.90;;;;;;4986974;28;20042;-59
2021/09/19 05:33:11;;;;;;;19.38;17.33;;;20.60;99.90;;;;;;4979211;28;20089;-60
2021/09/19 05:35:37;;;;;;;20.25;18.10;;;20.60;99.90;;;;;;4957455;28;20038;-59
2021/09/19 05:38:06;;;;;;;19.55;17.48;;;20.60;99.90;;;;;;4958511;28;20022;-59
2021/09/19 05:40:33;;;;;;;19.65;17.40;;;20.60;99.90;;;;;;4962144;28;20416;-60
2021/09/19 05:43:01;;;;;;;20.33;18.17;;;20.80;99.90;;;;;;4974948;28;20022;-59
2021/09/19 05:45:28;;;;;;;20.55;18.40;;;20.60;99.90;;;;;;4974470;28;20030;-59
2021/09/19 05:47:53;;;;;;;18.83;16.83;;;20.60;99.90;;;;;;4958574;28;20023;-59
2021/09/19 05:50:19;;;;;;;18.13;16.23;;;20.70;99.90;;;;;;4978555;28;20491;-60
2021/09/19 05:52:44;;;;;;;19.65;17.42;;;20.80;99.90;;;;;;4980381;28;20031;-59
2021/09/19 05:55:10;;;;;;;18.23;16.50;;;20.70;99.90;;;;;;4978779;28;20094;-59
2021/09/19 05:57:36;;;;;;;18.70;16.77;;;20.80;99.90;;;;;;4976020;28;20093;-59
2021/09/19 06:00:02;;;;;;;18.77;16.08;;;20.70;99.90;;;;;;4982477;28;20179;-59
2021/09/19 06:02:27;;;;;;;18.23;16.33;;;20.90;99.90;;;;;;4962924;28;20158;-60
2021/09/19 06:04:53;;;;;;;17.65;15.82;;;21.00;99.90;;;;;;4982466;28;20117;-59
2021/09/19 06:07:19;;;;;;;17.10;15.48;;;21.00;99.90;;;;;;4985073;28;20429;-60
2021/09/19 06:09:44;;;;;;;20.00;15.43;;;20.90;99.90;;;;;;4980589;28;20034;-60
2021/09/19 06:12:10;;;;;;;17.48;15.45;;;21.10;99.90;;;;;;4965784;28;20035;-60
2021/09/19 06:14:35;;;;;;;16.00;14.40;;;21.10;99.90;;;;;;4975840;28;20362;-60
2021/09/19 06:17:01;;;;;;;16.15;14.25;;;20.90;99.90;;;;;;4971820;28;20114;-60
2021/09/19 06:19:27;;;;;;;15.68;14.00;;;21.00;99.90;;;;;;4975222;28;20412;-60
2021/09/19 06:21:52;;;;;;;14.65;13.25;;;21.00;99.90;;;;;;4978355;28;20023;-60
2021/09/19 06:24:18;;;;;;;15.15;13.55;;;21.00;99.90;;;;;;4973157;28;20381;-59
2021/09/19 06:26:43;;;;;;;16.02;13.98;;;21.00;99.90;;;;;;4974098;28;20031;-60
2021/09/19 06:29:09;;;;;;;14.13;12.65;;;20.90;99.90;;;;;;4955924;28;20054;-60
2021/09/19 06:31:35;;;;;;;14.57;13.00;;;20.90;99.90;;;;;;4972065;28;20047;-60
2021/09/19 06:34:00;;;;;;;13.77;12.32;;;20.90;99.90;;;;;;4974027;28;20023;-60
2021/09/19 06:36:26;;;;;;;14.48;12.00;;;21.00;99.90;;;;;;4972768;28;20034;-60
2021/09/19 06:38:51;;;;;;;13.10;11.57;;;20.90;99.90;;;;;;4972872;28;20093;-60
2021/09/19 06:41:17;;;;;;;13.82;12.45;;;21.00;99.90;;;;;;4965349;28;20635;-60
2021/09/19 06:43:43;;;;;;;13.13;12.02;;;21.00;99.90;;;;;;4956286;28;20034;-59
2021/09/19 06:46:08;;;;;;;13.98;12.65;;;21.00;99.90;;;;;;4972123;28;20059;-59
2021/09/19 06:48:34;;;;;;;13.48;12.15;;;21.00;99.90;;;;;;4974462;28;20101;-60
2021/09/19 06:50:59;;;;;;;14.20;12.80;;;21.00;99.90;;;;;;4972172;28;20034;-60
2021/09/19 06:53:25;;;;;;;13.70;12.43;;;21.10;99.90;;;;;;4972141;28;20073;-60
2021/09/19 06:55:51;;;;;;;12.85;11.55;;;21.10;99.90;;;;;;4970813;28;20388;-59
2021/09/19 06:58:16;;;;;;;13.13;11.77;;;20.90;99.90;;;;;;4974538;28;20038;-59
2021/09/19 07:00:42;;;;;;;12.63;11.52;;;21.00;99.90;;;;;;4971726;28;20035;-59
2021/09/19 07:03:07;;;;;;;14.13;12.70;;;21.00;99.90;;;;;;4974240;28;20030;-59
2021/09/19 07:05:33;;;;;;;14.23;12.55;;;21.00;99.90;;;;;;4954410;28;20026;-59
2021/09/19 07:07:59;;;;;;;15.38;13.20;;;21.10;99.90;;;;;;4972636;28;20484;-59
2021/09/19 07:10:24;;;;;;;14.35;12.85;;;21.20;99.90;;;;;;4971028;28;20038;-60
2021/09/19 07:12:50;;;;;;;15.65;13.90;;;21.10;99.90;;;;;;4973715;28;20042;-59
2021/09/19 07:15:15;;;;;;;15.70;14.07;;;21.30;99.90;;;;;;4954370;28;20033;-60
2021/09/19 07:17:41;;;;;;;14.77;13.27;;;21.40;99.90;;;;;;4973526;28;20088;-60
2021/09/19 07:20:07;;;;;;;15.95;14.15;;;21.30;99.90;;;;;;4972716;28;20548;-60
2021/09/19 07:22:34;;;;;;;15.10;13.60;;;21.40;99.90;;;;;;4972811;28;20037;-60
2021/09/19 07:24:59;;;;;;;16.83;14.82;;;21.30;99.90;;;;;;4973627;28;20030;-60
2021/09/19 07:27:25;;;;;;;15.63;13.45;;;21.30;99.90;;;;;;4972817;28;20053;-60
2021/09/19 07:29:51;;;;;;;16.27;13.68;;;21.40;99.90;;;;;;4972999;28;20042;-60
2021/09/19 07:32:17;;;;;;;15.85;14.25;;;21.40;99.90;;;;;;4971205;28;20035;-60
2021/09/19 07:34:42;;;;;;;15.57;14.02;;;21.40;99.90;;;;;;4972778;28;20034;-60
2021/09/19 07:37:09;;;;;;;14.52;13.02;;;21.30;99.90;;;;;;4971635;28;20046;-61
2021/09/19 07:39:35;;;;;;;15.60;13.98;;;21.30;99.90;;;;;;4972260;28;20077;-60
2021/09/19 07:42:01;;;;;;;15.35;13.75;;;21.30;99.90;;;;;;4974459;28;20033;-60
2021/09/19 07:44:27;;;;;;;16.75;14.98;;;21.30;99.90;;;;;;4967821;28;20019;-60
2021/09/19 07:46:53;;;;;;;14.90;13.40;;;21.40;99.90;;;;;;4976565;28;20046;-60
2021/09/19 07:49:20;;;;;;;17.20;13.57;;;21.50;99.90;;;;;;4976103;28;20362;-60
2021/09/19 07:51:46;;;;;;;15.00;13.43;;;21.60;99.90;;;;;;4976035;28;20559;-60
2021/09/19 07:54:13;;;;;;;14.85;13.48;;;21.50;99.90;;;;;;4956585;28;20114;-60
2021/09/19 07:56:38;;;;;;;16.08;13.95;;;21.70;99.90;;;;;;4968920;28;20035;-60
2021/09/19 07:59:04;;;;;;;14.00;12.60;;;21.70;99.90;;;;;;4977649;28;20023;-60
2021/09/19 08:01:30;;;;;;;14.48;12.45;;;21.80;99.90;;;;;;4976495;28;20046;-60
2021/09/19 08:03:55;;;;;;;16.35;12.95;;;21.80;99.90;;;;;;4959828;28;20070;-60
2021/09/19 08:06:22;;;;;;;14.80;13.32;;;21.70;99.90;;;;;;4976671;28;20177;-60
2021/09/19 08:08:49;;;;;;;13.82;12.50;;;21.80;99.90;;;;;;4975378;28;20073;-60
2021/09/19 08:11:15;;;;;;;14.27;12.60;;;21.70;99.90;;;;;;4975568;28;20038;-60
2021/09/19 08:13:41;;;;;;;12.73;11.52;;;21.80;99.90;;;;;;4976904;28;20027;-60
2021/09/19 08:16:07;;;;;;;14.10;12.85;;;21.90;99.90;;;;;;4974855;28;20572;-61
2021/09/19 08:18:32;;;;;;;12.80;11.52;;;21.70;99.90;;;;;;4975948;28;20109;-61
2021/09/19 08:20:59;;;;;;;13.50;12.10;;;22.20;99.90;;;;;;4972284;28;20369;-59
2021/09/19 08:23:24;;;;;;;13.77;12.38;;;22.30;99.90;;;;;;4976663;28;20026;-60
2021/09/19 08:25:50;;;;;;;14.25;12.95;;;22.30;99.90;;;;;;4974071;28;20126;-60
2021/09/19 08:28:15;;;;;;;14.70;13.15;;;22.20;99.90;;;;;;4977416;28;20026;-60
2021/09/19 08:30:41;;;;;;;15.68;14.27;;;22.20;99.90;;;;;;4974390;28;20030;-60
2021/09/19 08:33:07;;;;;;;14.45;12.57;;;22.30;99.90;;;;;;4959615;28;20054;-60
2021/09/19 08:35:32;;;;;;;15.45;13.95;;;22.30;99.90;;;;;;4975193;28;20031;-60
2021/09/19 08:37:58;;;;;;;14.07;12.70;;;22.30;99.90;;;;;;4975912;28;20074;-61
2021/09/19 08:40:24;;;;;;;16.02;13.98;;;22.20;99.90;;;;;;4959504;28;20053;-60
2021/09/19 08:42:54;;;;;;;15.23;13.63;;;22.30;99.90;;;;;;4975520;28;20468;-60
2021/09/19 08:45:20;;;;;;;14.93;13.38;;;22.10;99.90;;;;;;4976708;28;20159;-60
2021/09/19 08:47:47;;;;;;;16.08;14.07;;;22.10;99.90;;;;;;4976463;28;20031;-60
2021/09/19 08:50:13;;;;;;;15.52;13.98;;;22.00;99.90;;;;;;4976556;28;20027;-61
2021/09/19 08:52:40;;;;;;;15.68;14.05;;;22.00;99.90;;;;;;4975030;28;20056;-60
2021/09/19 08:55:06;;;;;;;15.40;13.90;;;22.10;99.90;;;;;;4977089;28;20085;-61
2021/09/19 08:57:32;;;;;;;17.92;15.60;;;22.10;99.90;;;;;;4976075;28;20034;-60
2021/09/19 09:00:02;;;;;;;15.25;13.75;;;22.30;99.90;;;;;;4976676;28;20102;-61
2021/09/19 09:02:28;;;;;;;16.63;14.73;;;22.40;99.90;;;;;;4958513;28;20035;-60
2021/09/19 09:04:55;;;;;;;16.65;14.07;;;22.50;99.90;;;;;;4976195;28;20026;-60
2021/09/19 09:07:22;;;;;;;16.02;14.32;;;22.60;99.90;;;;;;4973884;28;20042;-60
2021/09/19 09:09:54;;;;;;;17.48;14.70;;;22.70;99.90;;;;;;4976605;28;20031;-60
2021/09/19 09:12:20;;;;;;;16.23;14.63;;;22.80;99.90;;;;;;4975047;28;20073;-60
2021/09/19 09:14:51;;;;;;;15.63;14.10;;;22.90;99.90;;;;;;4976164;28;20027;-60
2021/09/19 09:17:22;;;;;;;16.90;15.18;;;23.00;99.90;;;;;;4974660;28;20065;-61
2021/09/19 09:19:50;;;;;;;15.27;13.70;;;22.90;99.90;;;;;;4976311;28;20030;-60
2021/09/19 09:22:36;;;;;;;16.83;14.27;;;23.20;99.90;;;;;;4975265;28;20031;-60
2021/09/19 09:25:12;;;;;;;15.25;13.65;;;23.30;99.10;;;;;;4976234;28;20139;-60
2021/09/19 09:27:39;;;;;;;15.63;14.00;;;23.30;99.10;;;;;;4971678;28;20380;-60
2021/09/19 09:30:19;;;;;;;16.00;12.85;;;23.20;98.30;;;;;;4981901;28;20114;-60
2021/09/19 09:32:52;;;;;;;13.65;12.32;;;23.30;98.90;;;;;;4978000;28;20043;-61
2021/09/19 09:35:18;;;;;;;20.67;12.93;;;23.20;98.70;;;;;;4974424;28;20027;-60
2021/09/19 09:37:45;;;;;;;14.88;12.20;;;23.00;98.50;;;;;;4957619;28;20022;-60
2021/09/19 09:40:31;;;;;;;14.23;12.77;;;23.20;99.10;;;;;;4975645;28;20027;-60
2021/09/19 09:43:02;;;;;;;15.13;12.10;;;23.00;98.10;;;;;;4957347;28;20034;-60
2021/09/19 09:45:28;;;;;;;13.70;11.75;;;23.30;98.50;;;;;;4957557;28;20509;-60
2021/09/19 09:47:54;;;;;;;13.50;11.75;;;23.30;98.40;;;;;;4973716;28;20059;-60
2021/09/19 09:50:25;;;;;;;13.93;12.40;;;23.50;98.40;;;;;;4975301;28;20507;-60
2021/09/19 09:52:53;;;;;;;15.02;11.75;;;23.50;97.90;;;;;;4956997;28;20532;-60
2021/09/19 09:55:21;;;;;;;21.02;16.00;;;23.70;97.60;;;;;;4975449;28;20022;-60
2021/09/19 09:57:49;;;;;;;13.70;10.70;;;23.90;97.80;;;;;;4974969;28;20031;-60
2021/09/19 10:00:20;;;;;;;14.05;10.73;;;23.90;95.80;;;;;;4973872;28;20027;-60
2021/09/19 10:02:48;;;;;;;11.93;9.38;;;24.00;95.30;;;;;;4973911;28;20039;-60
2021/09/19 10:05:16;;;;;;;11.70;10.50;;;24.20;95.60;;;;;;4971760;28;20026;-60
2021/09/19 10:07:43;;;;;;;9.07;7.95;;;24.50;94.30;;;;;;4981569;28;20531;-60
2021/09/19 10:10:13;;;;;;;9.32;8.45;;;24.60;94.50;;;;;;4960883;28;20060;-60
2021/09/19 10:12:39;;;;;;;10.05;9.05;;;24.60;93.30;;;;;;4970198;28;20038;-60
2021/09/19 10:15:06;;;;;;;17.17;15.75;;;24.50;98.10;;;;;;4985975;28;20041;-60
2021/09/19 10:17:33;;;;;;;11.65;10.45;;;24.50;96.60;;;;;;4974035;28;20042;-61
2021/09/19 10:20:01;;;;;;;13.50;9.77;;;24.50;96.40;;;;;;4957814;28;20031;-60
2021/09/19 10:22:30;;;;;;;11.65;9.90;;;24.40;96.00;;;;;;4958764;28;20027;-60
2021/09/19 10:24:56;;;;;;;14.25;9.20;;;24.20;96.10;;;;;;4974326;28;20449;-60
2021/09/19 10:27:28;;;;;;;11.25;9.13;;;24.10;96.60;;;;;;4973923;28;20117;-61
2021/09/19 10:29:59;;;;;;;10.57;9.43;;;23.90;97.10;;;;;;4979571;28;20112;-60
2021/09/19 10:32:36;;;;;;;12.55;11.35;;;23.70;96.70;;;;;;4979394;28;20085;-61
2021/09/19 10:35:17;;;;;;;14.88;12.00;;;23.40;96.90;;;;;;4974025;28;20078;-61
2021/09/19 10:38:00;;;;;;;11.18;10.02;;;23.40;97.70;;;;;;4971549;28;20535;-61
2021/09/19 10:40:35;;;;;;;12.90;11.38;;;23.40;97.70;;;;;;4972657;28;20077;-61
2021/09/19 10:43:22;;;;;;;11.90;10.70;;;23.20;98.10;;;;;;4968305;28;20031;-61
2021/09/19 10:45:52;;;;;;;14.45;13.05;;;23.10;98.80;;;;;;4963886;28;20500;-61
2021/09/19 10:48:29;;;;;;;12.63;11.27;;;23.10;99.00;;;;;;4970804;28;20029;-59
2021/09/19 10:51:06;;;;;;;14.80;11.88;;;23.00;99.30;;;;;;4972572;28;20037;-60
2021/09/19 10:53:44;;;;;;;15.13;12.35;;;23.10;99.50;;;;;;4973068;28;20055;-60
2021/09/19 10:56:10;;;;;;;16.58;11.45;;;23.00;99.80;;;;;;4956474;28;20039;-61
2021/09/19 10:58:46;;;;;;;11.55;10.20;;;23.00;99.60;;;;;;4971807;28;20019;-61
2021/09/19 11:01:19;;;;;;;13.15;11.68;;;23.00;99.90;;;;;;4973074;28;20463;-61
2021/09/19 11:03:46;;;;;;;12.45;11.10;;;23.00;99.90;;;;;;4973216;28;20028;-61
2021/09/19 11:06:23;;;;;;;13.85;11.68;;;22.90;99.90;;;;;;4972381;28;20432;-61
2021/09/19 11:08:49;;;;;;;16.10;12.07;;;22.90;99.90;;;;;;4972945;28;20035;-61
2021/09/19 11:11:20;;;;;;;13.07;11.77;;;22.80;99.90;;;;;;4954511;28;20388;-61
2021/09/19 11:13:53;;;;;;;16.65;13.20;;;22.80;99.90;;;;;;4971381;28;20031;-61
2021/09/19 11:16:21;;;;;;;15.82;12.18;;;22.60;99.90;;;;;;4962034;28;20033;-61
2021/09/19 11:18:50;;;;;;;19.58;13.82;;;22.50;99.90;;;;;;4955630;28;20129;-61
2021/09/19 11:21:18;;;;;;;24.92;17.38;;;21.80;99.90;;;;;;4972149;28;20038;-60
2021/09/19 11:23:46;;;;;;;35.88;21.48;;;21.30;99.90;;;;;;4971813;28;20026;-60
2021/09/19 11:26:21;;;;;;;11.35;8.82;;;20.60;99.90;;;;;;4972038;28;20069;-60
2021/09/19 11:28:48;;;;;;;5.07;2.80;;;19.50;99.90;;;;;;4973073;28;20497;-59
2021/09/19 11:31:18;;;;;;;24.00;7.55;;;18.20;99.90;;;;;;4973947;28;20053;-59
2021/09/19 11:33:44;;;;;;;9.00;4.05;;;18.00;99.90;;;;;;4951070;28;20050;-59
2021/09/19 11:36:15;;;;;;;6.68;2.10;;;18.00;99.90;;;;;;4972911;28;20522;-59
2021/09/19 11:38:44;;;;;;;4.03;1.67;;;17.70;99.90;;;;;;4963450;28;20027;-59
2021/09/19 11:41:10;;;;;;;5.40;2.45;;;17.80;99.90;;;;;;4972528;28;20050;-59
2021/09/19 11:43:37;;;;;;;3.60;2.63;;;18.40;99.90;;;;;;4969366;28;20511;-59
2021/09/19 11:46:10;;;;;;;5.85;3.28;;;18.30;99.90;;;;;;4972555;28;20034;-59
2021/09/19 11:48:36;;;;;;;4.53;3.10;;;18.80;99.90;;;;;;4972457;28;20066;-59
2021/09/19 11:51:03;;;;;;;4.38;3.67;;;18.50;99.90;;;;;;4972529;28;20385;-60
2021/09/19 11:53:28;;;;;;;7.72;4.70;;;19.40;99.90;;;;;;4971162;28;20436;-59
2021/09/19 11:55:55;;;;;;;11.60;6.55;;;19.40;99.90;;;;;;4973376;28;20023;-59
2021/09/19 11:58:22;;;;;;;8.77;5.18;;;20.30;99.90;;;;;;4970937;28;20030;-59
2021/09/19 12:00:59;;;;;;;7.13;5.50;;;20.30;99.90;;;;;;4972176;28;20034;-60
2021/09/19 12:03:25;;;;;;;7.03;6.25;;;20.30;99.90;;;;;;4969207;28;20031;-60
2021/09/19 12:05:55;;;;;;;7.10;5.45;;;20.80;99.90;;;;;;4971754;28;20062;-60
2021/09/19 12:08:27;;;;;;;4.13;3.63;;;21.50;99.90;;;;;;4971326;28;20141;-60
2021/09/19 12:10:54;;;;;;;7.10;2.70;;;21.80;99.90;;;;;;4971987;28;20038;-61
2021/09/19 12:13:29;;;;;;;6.03;3.42;;;22.90;99.90;;;;;;4972147;28;20031;-60
2021/09/19 12:16:08;;;;;;;3.95;3.00;;;25.00;99.90;;;;;;4962042;28;20414;-61
2021/09/19 12:18:37;;;;;;;3.92;3.63;;;27.30;99.90;;;;;;4970264;28;20047;-61
2021/09/19 12:21:24;;;;;;;10.35;6.50;;;27.60;99.90;;;;;;4954395;28;20392;-61
2021/09/19 12:23:56;;;;;;;6.75;6.13;;;28.80;99.90;;;;;;4969648;28;20079;-61
2021/09/19 12:26:23;;;;;;;8.20;6.90;;;29.40;99.90;;;;;;4968596;28;20034;-61
2021/09/19 12:28:50;;;;;;;14.30;8.18;;;;;;;;;;4969931;28;20027;-61
2021/09/19 12:31:33;;;;;;;9.52;6.32;;;;;;;;;;4983196;28;20097;-62